Time;durP1;ratioP1;P1;durP2;ratioP2;P2;SDS_P1;SDS_P2;PMS_P1;PMS_P2;Temp;Humidity;BMP_temperature;BMP_pressure;BME280_temperature;BME280_humidity;BME280_pressure;Samples;Min_cycle;Max_cycle;Signal;HPM_P1;HPM_P2
2022/06/26 00:01:17;;;;;;;6.92;4.85;;;26.80;99.90;;;;;;1858977;76;21100;-82
2022/06/26 00:03:48;;;;;;;7.50;5.33;;;26.80;99.90;;;;;;1859400;75;21185;-83
2022/06/26 00:06:19;;;;;;;7.08;5.50;;;26.80;99.90;;;;;;1857406;75;21736;-82
2022/06/26 00:08:50;;;;;;;6.12;5.25;;;26.90;99.90;;;;;;1873893;75;21584;-82
2022/06/26 00:11:22;;;;;;;6.42;5.20;;;26.90;99.90;;;;;;1869680;75;21191;-82
2022/06/26 00:13:54;;;;;;;11.25;5.97;;;27.00;99.90;;;;;;1870620;75;21655;-82
2022/06/26 00:16:25;;;;;;;6.58;4.97;;;26.90;99.90;;;;;;1872704;75;21264;-82
2022/06/26 00:18:56;;;;;;;7.30;6.08;;;26.90;99.90;;;;;;1860286;75;21203;-82
2022/06/26 00:21:27;;;;;;;7.30;5.50;;;27.00;99.90;;;;;;1860449;75;21730;-82
2022/06/26 00:23:58;;;;;;;10.85;6.72;;;27.10;99.90;;;;;;1818012;78;21682;-82
2022/06/26 00:26:29;;;;;;;8.88;5.60;;;27.20;99.90;;;;;;1858514;75;21249;-83
2022/06/26 00:29:00;;;;;;;6.95;5.80;;;27.30;99.90;;;;;;1864126;75;21148;-82
2022/06/26 00:31:31;;;;;;;7.92;6.58;;;27.20;99.90;;;;;;1858448;75;21155;-81
2022/06/26 00:34:02;;;;;;;7.67;6.08;;;27.20;99.90;;;;;;1865217;75;21168;-82
2022/06/26 00:36:33;;;;;;;9.50;6.40;;;27.30;99.90;;;;;;1817362;78;21183;-82
2022/06/26 00:39:04;;;;;;;7.37;5.90;;;27.40;99.90;;;;;;1866712;75;21151;-82
2022/06/26 00:41:35;;;;;;;7.28;5.95;;;27.40;99.90;;;;;;1866485;75;21552;-82
2022/06/26 00:44:08;;;;;;;7.53;5.55;;;27.60;99.90;;;;;;1863863;75;21127;-82
2022/06/26 00:46:39;;;;;;;8.78;5.92;;;27.60;99.90;;;;;;1829214;76;21560;-82
2022/06/26 00:49:11;;;;;;;7.60;6.00;;;27.50;99.90;;;;;;1869339;75;21235;-82
2022/06/26 00:51:44;;;;;;;8.50;5.50;;;27.60;99.90;;;;;;1881802;75;21525;-83
2022/06/26 00:54:16;;;;;;;7.53;5.35;;;27.60;99.90;;;;;;1862066;75;21638;-81
2022/06/26 00:56:48;;;;;;;7.87;6.35;;;27.70;99.90;;;;;;1868123;75;21173;-82
2022/06/26 00:59:19;;;;;;;6.72;5.55;;;27.70;99.90;;;;;;1860773;75;21140;-82
2022/06/26 01:01:50;;;;;;;7.30;5.62;;;27.80;99.90;;;;;;1865380;75;21120;-83
2022/06/26 01:04:20;;;;;;;6.55;5.85;;;28.00;99.90;;;;;;1865818;75;21566;-82
2022/06/26 01:06:52;;;;;;;6.15;5.40;;;27.90;99.90;;;;;;1857021;76;21112;-82
2022/06/26 01:09:23;;;;;;;7.25;5.78;;;27.90;99.90;;;;;;1857554;76;21231;-81
2022/06/26 01:11:54;;;;;;;9.30;6.47;;;28.10;99.90;;;;;;1862274;76;21123;-82
2022/06/26 01:14:26;;;;;;;6.45;5.53;;;28.00;99.90;;;;;;1853854;77;21257;-82
2022/06/26 01:16:57;;;;;;;5.97;5.10;;;28.10;99.90;;;;;;1845677;76;21151;-83
2022/06/26 01:19:30;;;;;;;5.42;4.50;;;28.20;99.90;;;;;;1845929;76;21178;-82
2022/06/26 01:22:01;;;;;;;5.83;3.80;;;28.30;99.90;;;;;;1857220;76;21627;-82
2022/06/26 01:24:32;;;;;;;5.87;3.58;;;28.40;99.90;;;;;;1857658;76;21116;-84
2022/06/26 01:27:03;;;;;;;6.37;3.60;;;28.40;99.90;;;;;;1858489;75;21078;-82
2022/06/26 01:29:34;;;;;;;6.53;3.98;;;28.60;99.90;;;;;;1869503;75;21162;-83
2022/06/26 01:32:06;;;;;;;3.77;3.15;;;28.50;99.90;;;;;;1859323;75;21127;-83
2022/06/26 01:34:37;;;;;;;4.62;3.25;;;28.50;99.90;;;;;;1869463;75;21636;-83
2022/06/26 01:37:08;;;;;;;4.22;3.10;;;28.50;99.90;;;;;;1858495;75;21133;-82
2022/06/26 01:39:39;;;;;;;6.03;3.98;;;28.60;99.90;;;;;;1851704;75;21607;-84
2022/06/26 01:42:10;;;;;;;5.65;3.80;;;28.70;99.90;;;;;;1865947;76;21160;-82
2022/06/26 01:44:41;;;;;;;4.92;3.47;;;28.80;99.90;;;;;;1864928;76;21616;-83
2022/06/26 01:47:12;;;;;;;5.20;3.30;;;28.90;99.90;;;;;;1866879;76;21735;-83
2022/06/26 01:49:43;;;;;;;7.75;4.00;;;29.10;99.90;;;;;;1872184;71;21140;-82
2022/06/26 01:52:15;;;;;;;4.45;3.20;;;29.00;99.90;;;;;;1872293;72;21138;-83
2022/06/26 01:54:46;;;;;;;5.75;3.92;;;28.90;99.90;;;;;;1876120;75;21257;-82
2022/06/26 01:57:17;;;;;;;5.75;3.58;;;29.00;99.90;;;;;;1874360;74;21174;-80
2022/06/26 01:59:48;;;;;;;5.75;3.90;;;29.00;99.90;;;;;;1875833;75;21189;-82
2022/06/26 02:02:19;;;;;;;6.70;4.35;;;29.10;99.90;;;;;;1874297;73;21099;-84
2022/06/26 02:04:50;;;;;;;6.45;4.10;;;29.10;99.90;;;;;;1872536;76;21127;-83
2022/06/26 02:07:21;;;;;;;7.90;4.08;;;29.00;99.90;;;;;;1872255;76;21123;-83
2022/06/26 02:14:57;;;;;;;5.97;4.28;;;29.00;99.90;;;;;;1867092;74;21120;-85
2022/06/26 02:17:28;;;;;;;4.30;3.85;;;29.10;99.90;;;;;;1867427;76;21119;-84
2022/06/26 02:19:58;;;;;;;32.60;6.17;;;29.30;99.90;;;;;;1868253;76;21130;-84
2022/06/26 02:22:29;;;;;;;4.58;3.92;;;29.20;99.90;;;;;;1871464;76;21611;-84
2022/06/26 02:25:00;;;;;;;7.12;4.50;;;29.20;99.90;;;;;;1872491;76;21154;-83
2022/06/26 02:27:32;;;;;;;6.90;4.12;;;29.20;99.90;;;;;;1863811;76;21095;-83
2022/06/26 02:30:03;;;;;;;8.90;4.25;;;29.30;99.90;;;;;;1860949;76;21294;-84
2022/06/26 02:32:35;;;;;;;5.40;3.58;;;29.30;99.90;;;;;;1859619;76;21143;-84
2022/06/26 02:35:06;;;;;;;7.10;4.50;;;29.20;99.90;;;;;;1871907;76;21174;-85
2022/06/26 02:37:37;;;;;;;4.67;3.67;;;29.20;99.90;;;;;;1871479;76;21166;-84
2022/06/26 02:40:09;;;;;;;5.70;3.33;;;29.20;99.90;;;;;;1861758;76;21130;-84
2022/06/26 02:42:40;;;;;;;7.92;3.33;;;29.30;99.90;;;;;;1852843;76;21238;-82
2022/06/26 02:45:12;;;;;;;7.05;3.20;;;29.30;99.80;;;;;;1856589;76;21100;-82
2022/06/26 02:47:43;;;;;;;6.08;3.30;;;29.40;99.60;;;;;;1853845;76;21139;-84
2022/06/26 02:50:15;;;;;;;5.37;3.40;;;29.30;99.50;;;;;;1851011;76;21116;-83
2022/06/26 02:52:47;;;;;;;5.20;3.05;;;29.20;99.00;;;;;;1855987;76;21116;-83
2022/06/26 02:55:18;;;;;;;3.50;2.90;;;29.30;99.30;;;;;;1856801;76;21100;-82
2022/06/26 02:57:50;;;;;;;5.22;3.05;;;29.20;99.50;;;;;;1846931;76;21146;-82
2022/06/26 03:00:21;;;;;;;3.98;3.10;;;29.40;99.60;;;;;;1845487;76;21245;-82
2022/06/26 03:02:52;;;;;;;4.08;3.00;;;29.40;99.00;;;;;;1867799;77;21100;-82
2022/06/26 03:05:23;;;;;;;4.83;3.40;;;29.70;99.20;;;;;;1860541;76;21186;-84
2022/06/26 03:07:56;;;;;;;4.62;3.25;;;29.60;99.30;;;;;;1854717;77;21147;-82
2022/06/26 03:10:26;;;;;;;5.15;3.40;;;29.60;99.00;;;;;;1882663;74;21183;-83
2022/06/26 03:12:57;;;;;;;5.33;3.95;;;29.60;98.80;;;;;;1878768;74;21174;-82
2022/06/26 03:15:28;;;;;;;5.15;3.40;;;29.70;98.70;;;;;;1850084;74;21142;-81
2022/06/26 03:18:02;;;;;;;5.37;2.90;;;29.80;99.00;;;;;;1869103;75;21084;-82
2022/06/26 03:20:31;;;;;;;7.72;4.17;;;29.90;98.60;;;;;;1856465;75;21154;-83
2022/06/26 03:23:02;;;;;;;5.47;3.70;;;29.80;98.50;;;;;;1864037;76;21695;-84
2022/06/26 03:25:34;;;;;;;4.42;3.00;;;29.60;98.50;;;;;;1858646;76;21144;-83
2022/06/26 03:28:04;;;;;;;4.67;3.00;;;29.50;98.70;;;;;;1854376;76;21085;-84
2022/06/26 03:30:35;;;;;;;7.30;3.58;;;29.70;98.90;;;;;;1858693;76;21205;-81
2022/06/26 03:33:06;;;;;;;6.78;3.72;;;29.60;98.70;;;;;;1859212;76;21065;-82
2022/06/26 03:35:37;;;;;;;4.42;3.30;;;29.40;98.90;;;;;;1865208;76;21160;-82
2022/06/26 03:38:10;;;;;;;7.17;3.35;;;29.40;99.10;;;;;;1858785;76;21221;-81
2022/06/26 03:40:40;;;;;;;4.47;2.92;;;29.50;99.40;;;;;;1874613;76;21600;-82
2022/06/26 03:43:12;;;;;;;5.47;3.58;;;29.50;99.20;;;;;;1807120;77;21186;-83
2022/06/26 03:45:42;;;;;;;4.33;3.47;;;29.60;99.00;;;;;;1859799;76;21190;-84
2022/06/26 03:48:13;;;;;;;6.33;3.92;;;29.80;99.30;;;;;;1814216;78;21159;-83
2022/06/26 03:50:44;;;;;;;5.85;3.67;;;29.90;99.40;;;;;;1875528;75;21135;-84
2022/06/26 03:53:15;;;;;;;5.33;2.62;;;29.90;99.10;;;;;;1868718;76;21205;-84
2022/06/26 03:55:46;;;;;;;5.42;2.77;;;30.10;98.20;;;;;;1858881;76;21096;-85
2022/06/26 03:58:18;;;;;;;4.78;3.15;;;30.20;98.20;;;;;;1859918;76;21264;-82
2022/06/26 04:00:49;;;;;;;9.40;3.20;;;30.30;98.10;;;;;;1861557;75;21093;-83
2022/06/26 04:03:21;;;;;;;4.75;2.87;;;30.40;97.50;;;;;;1873590;75;21202;-83
2022/06/26 04:05:53;;;;;;;6.20;2.98;;;30.50;97.80;;;;;;1855146;76;21143;-83
2022/06/26 04:08:24;;;;;;;5.15;3.08;;;30.70;97.40;;;;;;1863899;74;21596;-84
2022/06/26 04:10:55;;;;;;;6.80;2.55;;;30.60;97.30;;;;;;1887256;75;21082;-84
2022/06/26 04:13:26;;;;;;;3.87;2.60;;;30.50;97.20;;;;;;1859291;76;21167;-84
2022/06/26 04:15:58;;;;;;;5.20;2.85;;;30.80;96.60;;;;;;1809919;78;21191;-83
2022/06/26 04:18:30;;;;;;;4.72;3.10;;;30.60;97.00;;;;;;1847113;76;21561;-84
2022/06/26 04:21:01;;;;;;;7.25;2.65;;;30.70;96.80;;;;;;1858999;76;21088;-83
2022/06/26 04:23:32;;;;;;;5.12;2.42;;;30.60;96.60;;;;;;1864816;76;21136;-84
2022/06/26 04:26:04;;;;;;;3.87;2.22;;;30.60;96.20;;;;;;1852615;76;21085;-84
2022/06/26 04:28:36;;;;;;;4.53;2.52;;;30.60;96.20;;;;;;1852530;76;21163;-84
2022/06/26 04:31:06;;;;;;;3.75;2.80;;;30.50;96.30;;;;;;1858768;76;21186;-81
2022/06/26 04:33:37;;;;;;;5.42;2.45;;;30.70;96.40;;;;;;1847952;75;21679;-83
2022/06/26 04:36:09;;;;;;;4.80;2.60;;;30.50;96.10;;;;;;1846217;76;21655;-82
2022/06/26 04:38:40;;;;;;;3.20;2.30;;;30.70;96.30;;;;;;1845853;77;21084;-83
2022/06/26 04:43:43;;;;;;;4.97;2.75;;;30.40;96.60;;;;;;1858263;76;21116;-83
2022/06/26 04:46:14;;;;;;;4.37;2.80;;;30.40;96.80;;;;;;1858730;76;21131;-82
2022/06/26 04:48:46;;;;;;;4.50;2.98;;;30.40;96.80;;;;;;1861105;75;21180;-84
2022/06/26 04:51:17;;;;;;;3.20;2.50;;;30.40;96.60;;;;;;1810929;78;21814;-83
2022/06/26 04:53:48;;;;;;;3.92;2.50;;;30.70;94.50;;;;;;1857190;76;21149;-85
2022/06/26 04:56:19;;;;;;;5.58;2.90;;;30.60;94.50;;;;;;1859335;76;21155;-84
2022/06/26 04:58:50;;;;;;;5.50;2.40;;;30.70;94.50;;;;;;1811690;78;21218;-84
2022/06/26 05:01:22;;;;;;;4.62;2.33;;;30.90;94.00;;;;;;1862229;76;21713;-84
2022/06/26 05:03:53;;;;;;;2.90;2.05;;;30.70;94.10;;;;;;1863513;76;21161;-84
2022/06/26 05:06:24;;;;;;;2.80;1.37;;;30.80;93.50;;;;;;1855929;76;21254;-86
2022/06/26 05:08:55;;;;;;;3.87;1.52;;;30.90;91.80;;;;;;1851356;76;21197;-84
2022/06/26 05:11:27;;;;;;;3.15;1.62;;;31.10;92.10;;;;;;1867060;75;21171;-85
2022/06/26 05:13:58;;;;;;;2.52;1.65;;;31.30;92.20;;;;;;1863019;75;21151;-85
2022/06/26 05:16:29;;;;;;;3.98;1.62;;;31.20;91.30;;;;;;1849771;76;21647;-84
2022/06/26 05:19:00;;;;;;;3.58;2.22;;;31.20;90.90;;;;;;1865682;76;21639;-84
2022/06/26 05:21:31;;;;;;;4.97;2.15;;;31.30;91.40;;;;;;1857514;76;21185;-85
2022/06/26 05:24:02;;;;;;;3.65;2.02;;;31.30;91.60;;;;;;1865503;76;21100;-86
2022/06/26 05:26:39;;;;;;;3.83;2.17;;;31.50;90.90;;;;;;1857343;75;21626;-86
2022/06/26 05:29:09;;;;;;;3.43;2.00;;;31.70;90.80;;;;;;1846489;76;21168;-86
2022/06/26 05:31:46;;;;;;;3.62;2.25;;;31.70;90.90;;;;;;1870303;76;21217;-86
2022/06/26 05:34:18;;;;;;;3.72;2.30;;;31.80;92.00;;;;;;1866480;76;21277;-86
2022/06/26 05:36:51;;;;;;;5.20;2.25;;;;;;;;;;1847790;76;21152;-85
2022/06/26 05:39:22;;;;;;;1.98;1.25;;;;;;;;;;1854040;76;21164;-84
2022/06/26 05:41:53;;;;;;;3.83;1.65;;;32.80;99.90;;;;;;1848119;76;21179;-84
2022/06/26 05:44:25;;;;;;;3.33;1.90;;;33.00;99.00;;;;;;1850189;76;21171;-84
2022/06/26 05:46:56;;;;;;;4.25;2.40;;;32.70;98.50;;;;;;1853345;76;21155;-84
2022/06/26 05:49:30;;;;;;;4.72;2.10;;;32.50;98.50;;;;;;1847668;77;21261;-85
2022/06/26 05:52:01;;;;;;;5.03;1.98;;;32.50;95.60;;;;;;1841691;76;21172;-85
2022/06/26 05:54:34;;;;;;;2.65;1.55;;;32.70;95.10;;;;;;1856184;76;21122;-83
2022/06/26 05:57:08;;;;;;;3.17;1.90;;;32.50;94.10;;;;;;1849592;76;21111;-85
2022/06/26 05:59:38;;;;;;;4.42;2.00;;;32.60;95.10;;;;;;1848288;76;21658;-85
2022/06/26 06:02:09;;;;;;;3.47;1.85;;;32.50;94.60;;;;;;1849306;76;21096;-85
2022/06/26 06:04:40;;;;;;;2.87;1.95;;;32.70;95.80;;;;;;1848546;76;21218;-83
2022/06/26 06:07:11;;;;;;;5.15;2.90;;;32.40;96.20;;;;;;1865008;76;21143;-84
2022/06/26 06:09:42;;;;;;;6.95;4.05;;;32.60;96.90;;;;;;1862825;76;21224;-85
2022/06/26 06:12:14;;;;;;;2.65;1.60;;;32.70;97.00;;;;;;1847949;76;21160;-83
2022/06/26 06:14:45;;;;;;;3.45;2.10;;;32.70;97.30;;;;;;1850040;76;21150;-84
2022/06/26 06:20:08;;;;;;;6.87;2.65;;;32.70;96.40;;;;;;1847830;77;21749;-84
2022/06/26 06:22:41;;;;;;;5.15;2.05;;;32.60;96.30;;;;;;1846986;76;21273;-84
2022/06/26 06:25:13;;;;;;;4.65;2.05;;;32.60;96.40;;;;;;1865847;76;21092;-84
2022/06/26 06:27:46;;;;;;;3.22;1.80;;;32.60;96.40;;;;;;1851074;76;21170;-85
2022/06/26 06:30:18;;;;;;;4.78;2.25;;;32.80;97.30;;;;;;1850669;76;21401;-85
2022/06/26 06:32:49;;;;;;;3.45;2.35;;;32.50;97.30;;;;;;1847664;77;21136;-85
2022/06/26 06:35:24;;;;;;;4.70;2.33;;;32.50;97.60;;;;;;1847694;77;21147;-84
2022/06/26 06:37:55;;;;;;;3.80;1.95;;;32.40;97.20;;;;;;1816925;77;21251;-84
2022/06/26 06:40:26;;;;;;;3.72;2.45;;;32.40;97.80;;;;;;1847519;77;21205;-83
2022/06/26 06:42:57;;;;;;;2.95;2.25;;;32.30;97.90;;;;;;1857690;76;21125;-84
2022/06/26 06:45:29;;;;;;;3.30;2.20;;;32.20;97.70;;;;;;1875835;75;21106;-83
2022/06/26 06:48:00;;;;;;;3.87;2.10;;;32.20;98.10;;;;;;1867758;75;21197;-84
2022/06/26 06:50:49;;;;;;;3.85;2.00;;;32.40;97.40;;;;;;1876027;75;21135;-84
2022/06/26 06:53:22;;;;;;;3.67;2.25;;;32.60;97.30;;;;;;1878990;75;21107;-84
2022/06/26 06:55:53;;;;;;;2.85;1.80;;;32.50;97.80;;;;;;1872616;75;21146;-84
2022/06/26 06:58:24;;;;;;;7.85;2.40;;;32.40;97.70;;;;;;1866484;75;21122;-85
2022/06/26 07:00:55;;;;;;;5.97;1.80;;;32.40;99.40;;;;;;1836699;78;21669;-82
2022/06/26 07:03:30;;;;;;;4.95;1.82;;;32.10;99.40;;;;;;1822301;78;21578;-83
2022/06/26 07:06:01;;;;;;;3.83;2.00;;;31.80;99.60;;;;;;1825346;77;21165;-85
2022/06/26 07:08:32;;;;;;;4.37;1.70;;;31.90;99.90;;;;;;1842687;77;21221;-84
2022/06/26 07:11:05;;;;;;;2.60;1.50;;;31.70;99.90;;;;;;1820399;78;21103;-85
2022/06/26 07:13:37;;;;;;;3.02;1.50;;;31.60;99.90;;;;;;1838329;77;21572;-84
2022/06/26 07:16:08;;;;;;;2.52;1.20;;;31.70;99.90;;;;;;1836722;77;21661;-84
2022/06/26 07:18:39;;;;;;;3.95;1.40;;;31.50;99.60;;;;;;1866442;77;21515;-83
2022/06/26 07:21:10;;;;;;;3.05;1.20;;;31.50;99.90;;;;;;1857790;75;21145;-84
2022/06/26 07:23:41;;;;;;;2.20;1.22;;;31.80;99.90;;;;;;1848190;77;21153;-83
2022/06/26 07:26:12;;;;;;;5.45;1.47;;;31.90;99.90;;;;;;1845683;76;21073;-84
2022/06/26 07:28:46;;;;;;;2.60;1.40;;;32.10;99.90;;;;;;1848996;76;21188;-84
2022/06/26 07:31:19;;;;;;;3.22;1.72;;;31.90;98.80;;;;;;1835976;76;21164;-83
2022/06/26 07:34:16;;;;;;;5.85;1.70;;;32.20;97.50;;;;;;1850110;76;21199;-84
2022/06/26 07:36:41;;;;;;;3.50;1.52;;;32.30;97.70;;;;;;1836715;77;21175;-83
2022/06/26 07:39:14;;;;;;;2.75;1.30;;;32.30;96.70;;;;;;1861513;76;21153;-83
2022/06/26 07:41:47;;;;;;;3.40;1.60;;;32.20;96.40;;;;;;1840691;77;21273;-84
2022/06/26 07:44:18;;;;;;;2.83;1.57;;;32.30;96.70;;;;;;1844345;76;21259;-83
2022/06/26 07:46:49;;;;;;;3.50;1.70;;;32.10;96.40;;;;;;1827623;78;21071;-83
2022/06/26 07:49:20;;;;;;;3.47;2.10;;;32.10;96.60;;;;;;1831422;78;21154;-83
2022/06/26 07:51:51;;;;;;;2.60;1.65;;;31.90;96.70;;;;;;1816723;78;21206;-83
2022/06/26 07:54:23;;;;;;;4.10;1.52;;;32.20;97.10;;;;;;1795487;78;21682;-83
2022/06/26 07:56:54;;;;;;;2.50;1.55;;;32.10;97.10;;;;;;1798447;77;21211;-82
2022/06/26 07:59:30;;;;;;;4.65;2.00;;;31.90;97.20;;;;;;1810895;78;21162;-84
2022/06/26 08:01:58;;;;;;;3.20;1.62;;;32.00;97.20;;;;;;1800366;78;21129;-82
2022/06/26 08:04:30;;;;;;;3.20;1.60;;;32.20;97.00;;;;;;1808035;78;21170;-80
2022/06/26 08:07:01;;;;;;;2.75;1.67;;;32.10;97.00;;;;;;1788801;78;21143;-83
2022/06/26 08:09:35;;;;;;;3.10;1.40;;;32.10;97.20;;;;;;1810787;78;21162;-81
2022/06/26 08:12:07;;;;;;;4.12;1.85;;;32.10;97.30;;;;;;1814254;78;21209;-81
2022/06/26 08:14:42;;;;;;;2.65;1.80;;;32.10;97.40;;;;;;1803229;78;21164;-81
2022/06/26 08:17:10;;;;;;;5.60;1.50;;;32.20;97.70;;;;;;1822782;78;21151;-83
2022/06/26 08:19:44;;;;;;;3.52;1.60;;;32.40;96.60;;;;;;1809072;77;21202;-82
2022/06/26 08:22:15;;;;;;;3.62;1.50;;;32.00;96.50;;;;;;1807635;77;21130;-84
2022/06/26 08:24:46;;;;;;;4.42;1.60;;;31.90;96.60;;;;;;1816839;77;21196;-83
2022/06/26 08:27:18;;;;;;;5.50;1.50;;;31.90;96.80;;;;;;1813196;78;21160;-84
2022/06/26 08:29:49;;;;;;;3.00;1.55;;;31.90;97.20;;;;;;1811180;78;21190;-83
2022/06/26 08:32:20;;;;;;;3.55;2.30;;;32.00;97.60;;;;;;1830356;77;21146;-82
2022/06/26 08:35:20;;;;;;;3.00;1.60;;;32.00;97.80;;;;;;1816449;78;21147;-83
2022/06/26 08:37:51;;;;;;;6.00;1.20;;;31.80;96.90;;;;;;1819687;78;21230;-83
2022/06/26 08:40:27;;;;;;;2.85;1.40;;;31.70;97.00;;;;;;1808140;78;21101;-84
2022/06/26 08:42:55;;;;;;;2.22;1.12;;;31.80;96.70;;;;;;1789450;80;21273;-82
2022/06/26 08:45:30;;;;;;;2.50;1.37;;;31.80;96.60;;;;;;1820388;75;21252;-85
2022/06/26 08:48:09;;;;;;;2.37;1.37;;;31.80;96.50;;;;;;1844617;77;22366;-85
2022/06/26 08:50:40;;;;;;;3.57;1.30;;;31.90;96.90;;;;;;1843083;77;21555;-84
2022/06/26 08:53:16;;;;;;;3.08;1.40;;;32.10;96.70;;;;;;1835623;76;21862;-84
2022/06/26 08:55:48;;;;;;;4.50;1.40;;;31.90;96.20;;;;;;1826874;77;21179;-84
2022/06/26 08:58:20;;;;;;;2.10;1.20;;;32.00;96.70;;;;;;1825953;77;21206;-84
2022/06/26 09:00:51;;;;;;;3.30;1.85;;;32.20;96.40;;;;;;1828352;77;21170;-83
2022/06/26 09:03:22;;;;;;;5.05;1.47;;;31.90;96.40;;;;;;1843995;76;21146;-85
2022/06/26 09:05:53;;;;;;;3.52;1.47;;;32.00;96.30;;;;;;1852741;77;21186;-84
2022/06/26 09:08:26;;;;;;;3.70;1.22;;;32.20;96.30;;;;;;1826091;77;21076;-83
2022/06/26 09:10:57;;;;;;;2.90;1.22;;;32.10;96.20;;;;;;1839325;77;21167;-83
2022/06/26 09:13:30;;;;;;;3.33;1.60;;;32.00;96.40;;;;;;1826666;77;21136;-83
2022/06/26 09:16:01;;;;;;;4.78;1.50;;;32.30;96.10;;;;;;1823895;77;21096;-83
2022/06/26 09:18:35;;;;;;;2.83;1.35;;;32.00;96.20;;;;;;1826094;77;21551;-84
2022/06/26 09:21:08;;;;;;;4.10;1.27;;;32.20;96.10;;;;;;1826291;77;21790;-84
2022/06/26 09:23:51;;;;;;;2.72;1.30;;;32.20;95.50;;;;;;1834861;77;21103;-83
2022/06/26 09:26:23;;;;;;;3.15;1.32;;;32.20;95.40;;;;;;1841148;77;21135;-84
2022/06/26 09:28:54;;;;;;;2.92;1.30;;;32.20;94.90;;;;;;1852401;77;21104;-84
2022/06/26 09:31:25;;;;;;;3.20;1.30;;;32.20;95.10;;;;;;1808621;78;21153;-85
2022/06/26 09:33:56;;;;;;;3.62;1.52;;;32.10;95.40;;;;;;1826449;77;21178;-83
2022/06/26 09:36:27;;;;;;;3.52;1.30;;;32.00;95.30;;;;;;1827210;77;21495;-84
2022/06/26 09:38:58;;;;;;;2.20;1.50;;;32.10;95.60;;;;;;1827001;77;21221;-84
2022/06/26 09:41:32;;;;;;;1.70;1.10;;;32.10;95.70;;;;;;1826183;77;21155;-85
2022/06/26 09:44:03;;;;;;;2.37;1.17;;;32.10;95.80;;;;;;1839523;77;21682;-82
2022/06/26 09:46:44;;;;;;;3.05;1.60;;;32.20;95.90;;;;;;1831749;77;21123;-83
2022/06/26 09:49:11;;;;;;;3.55;1.55;;;32.00;96.00;;;;;;1839285;77;21159;-85
2022/06/26 09:51:42;;;;;;;3.77;1.47;;;32.10;96.30;;;;;;1809807;78;21188;-84
2022/06/26 09:54:16;;;;;;;2.20;1.30;;;32.20;96.00;;;;;;1830571;77;21631;-85
2022/06/26 09:56:51;;;;;;;3.70;1.45;;;32.30;96.00;;;;;;1826159;77;21095;-86
2022/06/26 09:59:41;;;;;;;4.45;1.40;;;32.00;95.80;;;;;;1828795;77;21577;-85
2022/06/26 10:07:05;;;;;;;2.95;1.52;;;32.10;96.00;;;;;;1825724;77;21502;-82
2022/06/26 10:09:37;;;;;;;3.80;1.42;;;32.00;96.20;;;;;;1836270;77;21213;-85
2022/06/26 10:12:12;;;;;;;7.35;1.90;;;32.00;96.10;;;;;;1835077;77;21649;-84
2022/06/26 10:14:50;;;;;;;4.45;1.50;;;31.90;95.70;;;;;;1815016;78;21159;-84
2022/06/26 10:17:19;;;;;;;2.72;1.30;;;32.10;95.70;;;;;;1847279;77;21656;-83
2022/06/26 10:19:52;;;;;;;3.50;1.32;;;31.90;95.80;;;;;;1823264;77;21442;-84
2022/06/26 10:22:24;;;;;;;2.17;1.30;;;32.00;95.80;;;;;;1815350;77;21186;-83
2022/06/26 10:24:57;;;;;;;6.45;2.20;;;31.90;95.70;;;;;;1840909;77;21208;-83
2022/06/26 10:27:31;;;;;;;4.58;1.75;;;32.00;95.70;;;;;;1802185;77;21218;-83
2022/06/26 10:30:09;;;;;;;3.70;1.60;;;31.80;95.80;;;;;;1831964;77;21107;-85
2022/06/26 10:32:40;;;;;;;3.33;1.80;;;32.00;96.10;;;;;;1827098;77;21123;-83
2022/06/26 10:35:13;;;;;;;14.95;2.85;;;31.90;95.90;;;;;;1839160;77;21162;-84
2022/06/26 10:37:50;;;;;;;7.92;2.15;;;32.00;96.00;;;;;;1827202;77;21134;-84
2022/06/26 10:42:57;;;;;;;8.93;2.10;;;31.70;95.90;;;;;;1834650;77;21159;-83
2022/06/26 10:45:30;;;;;;;5.60;1.98;;;31.80;95.80;;;;;;1830506;77;21158;-82
2022/06/26 10:48:05;;;;;;;6.03;1.62;;;31.80;95.90;;;;;;1836717;77;21104;-83
2022/06/26 10:50:38;;;;;;;4.25;1.82;;;31.70;95.70;;;;;;1826309;77;21670;-82
2022/06/26 10:53:13;;;;;;;2.92;1.60;;;31.90;95.70;;;;;;1820695;77;21183;-83
2022/06/26 10:55:47;;;;;;;3.80;1.92;;;31.80;95.80;;;;;;1829697;77;21125;-84
2022/06/26 10:58:20;;;;;;;5.40;1.77;;;31.60;95.60;;;;;;1820762;77;21594;-86
2022/06/26 11:00:53;;;;;;;4.67;2.20;;;31.80;96.00;;;;;;1826196;77;21223;-84
2022/06/26 11:03:29;;;;;;;6.58;2.00;;;31.80;95.60;;;;;;1841420;77;21230;-84
2022/06/26 11:06:02;;;;;;;3.72;1.75;;;31.60;95.60;;;;;;1834919;77;21115;-83
2022/06/26 11:08:35;;;;;;;3.55;2.17;;;31.80;95.60;;;;;;1831770;77;21626;-83
2022/06/26 11:11:09;;;;;;;3.60;2.00;;;31.70;95.60;;;;;;1837023;77;21148;-82
2022/06/26 11:13:42;;;;;;;3.42;2.17;;;31.50;95.60;;;;;;1824037;77;21168;-83
2022/06/26 11:16:13;;;;;;;4.40;2.00;;;31.50;95.60;;;;;;1827061;77;21104;-83
2022/06/26 11:18:47;;;;;;;6.17;1.87;;;31.50;95.60;;;;;;1825419;77;22776;-83
2022/06/26 11:21:18;;;;;;;5.85;2.47;;;31.80;95.60;;;;;;1825612;77;21167;-83
2022/06/26 11:23:51;;;;;;;5.08;2.83;;;31.70;95.70;;;;;;1816438;77;21120;-82
2022/06/26 11:26:23;;;;;;;5.30;3.00;;;31.50;95.40;;;;;;1823831;77;21911;-83
2022/06/26 11:28:56;;;;;;;5.97;3.30;;;31.50;95.40;;;;;;1818699;77;21586;-83
2022/06/26 11:31:30;;;;;;;4.42;3.02;;;31.60;95.40;;;;;;1836173;77;21229;-83
2022/06/26 11:34:04;;;;;;;4.70;2.47;;;31.50;95.30;;;;;;1834311;77;21175;-82
2022/06/26 11:36:35;;;;;;;3.58;2.40;;;31.60;95.10;;;;;;1826785;77;21761;-83
2022/06/26 11:39:09;;;;;;;4.20;2.45;;;31.70;95.10;;;;;;1833820;77;21194;-83
2022/06/26 11:41:41;;;;;;;7.85;2.80;;;31.50;94.90;;;;;;1798293;79;21266;-83
2022/06/26 11:44:12;;;;;;;4.22;2.70;;;31.70;95.40;;;;;;1833155;77;21205;-83
2022/06/26 11:46:44;;;;;;;4.40;2.85;;;31.70;95.20;;;;;;1832250;77;21152;-83
2022/06/26 11:49:21;;;;;;;6.15;3.20;;;31.60;95.10;;;;;;1827666;78;21224;-81
2022/06/26 11:55:01;;;;;;;6.87;2.98;;;31.40;95.00;;;;;;1899464;74;21084;-80
2022/06/26 11:57:37;;;;;;;6.40;3.35;;;31.50;95.20;;;;;;1932444;72;21661;-82
2022/06/26 12:00:09;;;;;;;8.58;4.65;;;31.50;95.20;;;;;;1925650;71;21103;-83
2022/06/26 12:02:42;;;;;;;9.15;4.75;;;31.30;96.10;;;;;;1915462;72;21119;-83
2022/06/26 12:05:15;;;;;;;9.05;5.53;;;31.50;96.90;;;;;;1942777;72;21610;-83
2022/06/26 12:07:51;;;;;;;12.30;6.63;;;31.40;97.20;;;;;;1917086;72;21144;-82
2022/06/26 12:10:25;;;;;;;15.38;7.33;;;31.50;97.40;;;;;;1930182;72;21566;-83
2022/06/26 12:12:57;;;;;;;23.07;11.55;;;31.30;97.50;;;;;;1922149;72;21142;-84
2022/06/26 12:15:31;;;;;;;22.13;12.33;;;31.20;97.90;;;;;;1924650;72;21055;-83
2022/06/26 12:18:05;;;;;;;22.20;11.00;;;31.20;98.20;;;;;;1940426;72;21070;-83
2022/06/26 12:20:39;;;;;;;15.93;9.20;;;31.40;98.30;;;;;;1871737;75;21552;-82
2022/06/26 12:23:11;;;;;;;11.25;7.20;;;31.30;98.50;;;;;;1868574;75;21207;-83
2022/06/26 12:25:44;;;;;;;12.80;6.28;;;31.30;98.60;;;;;;1868261;75;21083;-82
2022/06/26 12:28:17;;;;;;;9.73;6.20;;;31.10;98.60;;;;;;1871590;75;21110;-82
2022/06/26 12:30:48;;;;;;;9.30;6.20;;;31.00;98.60;;;;;;1887028;75;21094;-80
2022/06/26 12:33:19;;;;;;;9.03;5.70;;;31.30;99.40;;;;;;1868049;75;21199;-82
2022/06/26 12:35:50;;;;;;;8.70;5.47;;;31.00;98.80;;;;;;1869820;75;21125;-82
2022/06/26 12:38:23;;;;;;;13.03;6.83;;;30.90;98.90;;;;;;1867970;75;21660;-84
2022/06/26 12:40:56;;;;;;;10.48;6.05;;;31.20;98.90;;;;;;1862614;74;21140;-83
2022/06/26 12:43:27;;;;;;;8.85;5.25;;;30.90;98.80;;;;;;1847092;75;21127;-83
2022/06/26 12:45:59;;;;;;;8.83;5.33;;;30.90;98.90;;;;;;1877669;74;21047;-83
2022/06/26 12:48:30;;;;;;;9.65;5.40;;;31.00;99.00;;;;;;1835006;77;21156;-83
2022/06/26 12:51:01;;;;;;;13.70;6.35;;;31.10;98.90;;;;;;1900573;74;21147;-83
2022/06/26 12:53:33;;;;;;;12.03;6.17;;;30.90;99.00;;;;;;1902830;74;21091;-83
2022/06/26 12:56:04;;;;;;;15.28;6.80;;;31.10;99.00;;;;;;1954786;71;21107;-82
2022/06/26 12:58:35;;;;;;;14.63;8.48;;;31.10;99.10;;;;;;1961516;71;21121;-84
2022/06/26 13:01:11;;;;;;;15.95;7.72;;;31.10;99.40;;;;;;1957939;71;21127;-84
2022/06/26 13:03:39;;;;;;;10.75;7.80;;;30.80;99.30;;;;;;1900740;73;21186;-83
2022/06/26 13:06:10;;;;;;;18.82;8.88;;;31.10;99.80;;;;;;1941867;73;21065;-83
2022/06/26 13:08:41;;;;;;;14.20;7.95;;;31.00;99.90;;;;;;1900770;74;21111;-83
2022/06/26 13:13:45;;;;;;;11.28;6.78;;;31.10;99.90;;;;;;1903969;74;21147;-83
2022/06/26 13:16:17;;;;;;;11.93;5.80;;;31.10;99.90;;;;;;1905122;74;21134;-82
2022/06/26 13:18:48;;;;;;;11.38;6.50;;;30.80;99.90;;;;;;1904796;74;21144;-82
2022/06/26 13:21:21;;;;;;;11.75;7.25;;;30.70;99.90;;;;;;1915998;74;21547;-82
2022/06/26 13:23:52;;;;;;;12.13;6.80;;;30.80;99.90;;;;;;1931685;73;21681;-82
2022/06/26 13:26:23;;;;;;;10.55;6.80;;;30.80;99.90;;;;;;1951551;72;21072;-83
2022/06/26 13:28:54;;;;;;;14.47;7.15;;;30.70;99.90;;;;;;1980873;71;21228;-82
2022/06/26 13:31:30;;;;;;;11.90;7.62;;;30.60;99.90;;;;;;1906133;73;21142;-83
2022/06/26 13:33:58;;;;;;;11.50;8.00;;;30.80;99.90;;;;;;1912146;73;21183;-83